• Join FlightAware (Why Join?)
  • Login
  • US Flag 
01:45AM EST


 

Airport Tracker/Info


-or-


 

Live Flight TrackerFlight Track Log ✈ N761BT ✈ 19-May-2013 ✈ KLIT - KCRG

Flight Track Log - Related Links

Times and Time Zones

All times are in EDT time to prevent confusion due to time zone crossing. See the N761BT flight status page for this flight to view local times or setup timezone preferences in your user account.

Time Position Orientation Groundspeed Altitude Reporting Facility
EDT Latitude Longitude Course Direction KTS MPH feet Rate Location/Type
11:09AM 34.7200 -92.2419 152° Southeast 79 91 500  Level Memphis Center
11:09AM 34.7117 -92.2367 152° Southeast 83 96 800 660 Climbing Memphis Center
11:10AM 34.6972 -92.2161 131° Southeast 90 104 1,500 540 Climbing Memphis Center
11:11AM 34.6853 -92.1883 118° Southeast 94 108 2,000 540 Climbing Memphis Center
11:12AM 34.6731 -92.1575 116° Southeast 101 116 2,700 660 Climbing Memphis Center
11:13AM 34.6653 -92.1222 105° East 102 117 3,400 600 Climbing Memphis Center
11:14AM 34.6553 -92.0917 112° Southeast 99 114 4,000 600 Climbing Memphis Center
11:15AM 34.6411 -92.0611 119° Southeast 96 110 4,700 600 Climbing Memphis Center
11:16AM 34.6331 -92.0331 109° East 98 113 5,300 540 Climbing Memphis Center
11:17AM 34.6233 -91.9950 107° East 105 121 5,900 600 Climbing Memphis Center
11:18AM 34.6131 -91.9644 112° Southeast 101 116 6,600 480 Climbing Memphis Center
11:19AM 34.5989 -91.9314 117° Southeast 112 129 6,900 120 Climbing Memphis Center
11:20AM 34.5808 -91.8883 117° Southeast 151 174 6,900  Level Memphis Center
11:21AM 34.5667 -91.8403 110° East 155 178 6,900  Level Memphis Center
11:22AM 34.5608 -91.8172 107° East 149 171 6,900  Level Memphis Center
11:23AM 34.5383 -91.7692 120° Southeast 158 182 6,900  Level Memphis Center
11:24AM 34.5222 -91.7158 110° East 158 182 6,900 -60 Level Memphis Center
11:25AM 34.5061 -91.6628 110° East 158 182 6,800  Descending Memphis Center
11:26AM 34.4856 -91.6194 120° Southeast 158 182 6,900  Climbing Memphis Center
11:27AM 34.4675 -91.5714 114° Southeast 158 182 6,900  Level Memphis Center
11:28AM 34.4489 -91.5258 116° Southeast 158 182 6,900  Level Memphis Center
11:29AM 34.4306 -91.4778 115° Southeast 163 188 6,900 -60 Level Memphis Center
11:30AM 34.4144 -91.4272 111° Southeast 158 182 6,800 -60 Descending Memphis Center
11:31AM 34.3939 -91.3792 117° Southeast 158 182 6,800  Level Memphis Center
11:32AM 34.3778 -91.3286 111° Southeast 153 176 6,800  Level Memphis Center
11:33AM 34.3572 -91.2756 115° Southeast 153 176 6,800  Level Memphis Center
11:34AM 34.3408 -91.2275 112° Southeast 153 176 6,900  Climbing Memphis Center
11:35AM 34.3244 -91.1769 111° Southeast 158 182 6,800 -60 Descending Memphis Center
11:36AM 34.3061 -91.1317 116° Southeast 153 176 6,800  Level Memphis Center
11:37AM 34.2833 -91.0811 119° Southeast 160 184 6,800 60 Level Memphis Center
11:38AM 34.2647 -91.0333 115° Southeast 154 177 7,000 60 Climbing Memphis Center
11:39AM 34.2464 -90.9878 116° Southeast 154 177 7,000  Level Memphis Center
11:40AM 34.2297 -90.9375 112° Southeast 154 177 7,000  Level Memphis Center
11:41AM 34.2114 -90.8897 115° Southeast 154 177 7,000  Level Memphis Center
11:42AM 34.1947 -90.8417 113° Southeast 154 177 7,000  Level Memphis Center
11:43AM 34.1783 -90.7992 115° Southeast 160 184 7,000  Level Memphis Center
11:44AM 34.1575 -90.7514 118° Southeast 152 175 7,000  Level Memphis Center
11:45AM 34.1367 -90.7061 119° Southeast 152 175 7,000  Level Memphis Center
11:46AM 34.1222 -90.6583 110° East 152 175 7,000  Level Memphis Center
11:47AM 34.1036 -90.6156 118° Southeast 149 171 7,000  Level Memphis Center
11:48AM 34.0828 -90.5653 117° Southeast 149 171 7,000 -60 Level Memphis Center
11:49AM 34.0619 -90.5153 117° Southeast 159 183 6,900  Descending Memphis Center
11:50AM 34.0433 -90.4625 113° Southeast 154 177 7,000  Climbing Memphis Center
11:51AM 34.0244 -90.4122 114° Southeast 154 177 7,000  Level Memphis Center
11:52AM 34.0058 -90.3647 115° Southeast 154 177 7,000  Level Memphis Center
11:53AM 33.9869 -90.3147 114° Southeast 154 177 7,000 -60 Level Memphis Center
11:54AM 33.9661 -90.2644 117° Southeast 156 180 6,900 -60 Descending Memphis Center
11:55AM 33.9472 -90.2119 113° Southeast 156 180 6,900  Level Memphis Center
11:56AM 33.9264 -90.1594 116° Southeast 162 186 6,900  Level Memphis Center
11:57AM 33.9075 -90.1119 116° Southeast 162 186 6,900  Level Memphis Center
11:58AM 33.8864 -90.0619 117° Southeast 155 178 6,900  Level Memphis Center
11:59AM 33.8675 -90.0144 116° Southeast 155 178 6,900  Level Memphis Center
12:00PM 33.8506 -89.9669 113° Southeast 155 178 6,900  Level Memphis Center
12:01PM 33.8317 -89.9194 116° Southeast 160 184 6,900  Level Memphis Center
12:02PM 33.8128 -89.8647 113° Southeast 154 177 6,900  Level Memphis Center
12:03PM 33.7936 -89.8147 115° Southeast 154 177 6,900  Level Memphis Center
12:04PM 33.7747 -89.7675 116° Southeast 159 183 6,900  Level Memphis Center
12:05PM 33.7578 -89.7150 111° Southeast 154 177 6,900  Level Memphis Center
12:06PM 33.7367 -89.6653 117° Southeast 154 177 6,900  Level Memphis Center
12:07PM 33.7197 -89.6131 111° Southeast 154 177 6,900  Level Memphis Center
12:08PM 33.7006 -89.5606 114° Southeast 154 177 6,900  Level Memphis Center
12:09PM 33.6814 -89.5108 115° Southeast 154 177 6,900  Level Memphis Center
12:10PM 33.6664 -89.4636 111° Southeast 165 190 6,900  Level Memphis Center
12:10PM 33.6558 -89.4339 113° Southeast 165 190 6,900  Level Memphis Center
12:11PM 33.6453 -89.4089 117° Southeast 154 177 6,900  Level Memphis Center
12:11PM 33.6367 -89.3842 113° Southeast 163 188 6,900  Level Memphis Center
12:12PM 33.6261 -89.3594 117° Southeast 154 177 6,900  Level Memphis Center
12:12PM 33.6194 -89.3344 108° East 163 188 6,900  Level Memphis Center
12:13PM 33.6089 -89.3122 120° Southeast 154 177 6,900  Level Memphis Center
12:13PM 33.6003 -89.2872 112° Southeast 164 189 6,900  Level Memphis Center
12:14PM 33.5897 -89.2625 117° Southeast 154 177 6,900  Level Memphis Center
12:14PM 33.5769 -89.2353 119° Southeast 164 189 6,900  Level Memphis Center
12:15PM 33.5683 -89.2128 115° Southeast 154 177 6,900  Level Memphis Center
12:15PM 33.5619 -89.1906 109° East 163 188 6,900 -120 Level Memphis Center
12:16PM 33.5511 -89.1633 116° Southeast 154 177 6,800  Descending Memphis Center
12:16PM 33.5428 -89.1408 114° Southeast 163 188 6,900 60 Climbing Memphis Center
12:17PM 33.5342 -89.1136 111° Southeast 154 177 6,900 -120 Level Memphis Center
12:17PM 33.5256 -89.0914 115° Southeast 164 189 6,800 -120 Descending Memphis Center
12:18PM 33.5128 -89.0667 122° Southeast 154 177 6,800  Level Memphis Center
12:18PM 33.5042 -89.0419 113° Southeast 163 188 6,800 60 Level Memphis Center
12:19PM 33.4933 -89.0172 118° Southeast 159 183 6,900  Climbing Memphis Center
12:19PM 33.4825 -88.9875 114° Southeast 163 188 6,800 -120 Descending Memphis Center
12:20PM 33.4742 -88.9700 120° Southeast 154 177 6,800  Level Memphis Center
12:20PM 33.4611 -88.9403 118° Southeast 162 186 6,800  Level Memphis Center
12:21PM 33.4525 -88.9206 118° Southeast 154 177 6,800 60 Level Memphis Center
12:21PM 33.4419 -88.8908 113° Southeast 164 189 6,900 60 Climbing Memphis Center
12:22PM 33.4353 -88.8711 112° Southeast 154 177 6,900  Level Memphis Center
12:22PM 33.4247 -88.8464 117° Southeast 164 189 6,900  Level Memphis Center
12:23PM 33.4139 -88.8217 118° Southeast 154 177 6,900  Level Memphis Center
12:23PM 33.4031 -88.7894 112° Southeast 167 192 6,900  Level Memphis Center
12:24PM 33.3944 -88.7697 118° Southeast 154 177 6,900 -120 Level Memphis Center
12:24PM 33.3817 -88.7425 119° Southeast 168 193 6,800  Descending Memphis Center
12:25PM 33.3622 -88.6933 115° Southeast 167 192 6,900  Climbing Memphis Center
12:26PM 33.3383 -88.6392 118° Southeast 164 189 6,800  Descending Memphis Center
12:27PM 33.3233 -88.6019 116° Southeast 164 189 6,900  Climbing Memphis Center
12:28PM 33.3017 -88.5478 116° Southeast 166 191 6,900  Level Memphis Center
12:29PM 33.2822 -88.4986 115° Southeast 165 190 6,900  Level Memphis Center
12:30PM 33.2625 -88.4492 115° Southeast 166 191 6,900  Level Memphis Center
12:31PM 33.2431 -88.4000 115° Southeast 168 193 6,900 -60 Level Memphis Center
12:32PM 33.2192 -88.3483 119° Southeast 168 193 6,800 -60 Descending Memphis Center
12:33PM 33.1997 -88.2992 115° Southeast 168 193 6,800 60 Level Memphis Center
12:35PM 33.1528 -88.1822 116° Southeast 175 201 7,000 60 Climbing Atlanta Center
12:36PM 33.1333 -88.1342 116° Southeast 169 194 7,000  Level Atlanta Center
12:37PM 33.1142 -88.0839 114° Southeast 169 194 7,000  Level Atlanta Center
12:38PM 33.0928 -88.0356 118° Southeast 164 189 7,000 -60 Level Atlanta Center
12:39PM 33.0717 -87.9825 115° Southeast 164 189 6,900  Descending Atlanta Center
12:40PM 33.0544 -87.9347 113° Southeast 164 189 7,000  Climbing Atlanta Center
12:41PM 33.0350 -87.8819 114° Southeast 164 189 6,900 -60 Descending Atlanta Center
12:42PM 33.0139 -87.8289 115° Southeast 164 189 6,900  Level Atlanta Center
12:43PM 32.9964 -87.7861 116° Southeast 164 189 6,900  Level Atlanta Center
12:44PM 32.9769 -87.7358 115° Southeast 164 189 6,900  Level Atlanta Center
12:45PM 32.9575 -87.6853 115° Southeast 164 189 6,900  Level Atlanta Center
12:46PM 32.9381 -87.6375 116° Southeast 164 189 6,900  Level Atlanta Center
12:47PM 32.9186 -87.5872 115° Southeast 164 189 6,900  Level Atlanta Center
12:48PM 32.8969 -87.5419 120° Southeast 164 189 7,000  Climbing Atlanta Center
12:49PM 32.8775 -87.4917 115° Southeast 164 189 7,000  Level Atlanta Center
12:50PM 32.8539 -87.4461 122° Southeast 164 189 7,000  Level Atlanta Center
12:51PM 32.8300 -87.4008 122° Southeast 164 189 7,000  Level Atlanta Center
12:52PM 32.8106 -87.3531 116° Southeast 164 189 7,000 -60 Level Atlanta Center
12:53PM 32.7931 -87.3031 113° Southeast 164 189 6,900 -60 Descending Atlanta Center
12:54PM 32.7692 -87.2553 121° Southeast 164 189 6,900  Level Atlanta Center
12:55PM 32.7517 -87.2050 112° Southeast 164 189 6,900 -60 Level Atlanta Center
12:56PM 32.7300 -87.1600 120° Southeast 164 189 6,800 -60 Descending Atlanta Center
12:57PM 32.7081 -87.1122 119° Southeast 164 189 6,800  Level Atlanta Center
12:58PM 32.6883 -87.0647 116° Southeast 164 189 6,800  Level Atlanta Center
12:59PM 32.6686 -87.0172 116° Southeast 164 189 6,800  Level Atlanta Center
01:00PM 32.6492 -86.9672 115° Southeast 164 189 6,900  Climbing Atlanta Center
01:01PM 32.6292 -86.9219 118° Southeast 164 189 6,800 -60 Descending Atlanta Center
01:02PM 32.6094 -86.8722 115° Southeast 164 189 6,800  Level Atlanta Center
01:04PM 32.5906 -86.8244 119° Southeast  Level Estimated
01:11PM 32.4666 -86.5108 115° Southeast  Level Estimated
01:12PM 32.4577 -86.4625 102° East  Level FlightAware Approximate
01:13PM 32.4488 -86.4142 102° East  Level FlightAware Approximate
01:14PM 32.4400 -86.3659 102° East  Level FlightAware Approximate
01:15PM 32.4311 -86.3176 102° East  Level FlightAware Approximate
01:16PM 32.4221 -86.2693 102° East  Level FlightAware Approximate
01:17PM 32.4132 -86.2211 102° East  Level FlightAware Approximate
01:18PM 32.4043 -86.1728 102° East  Level FlightAware Approximate
01:19PM 32.3871 -86.1193 116° Southeast  Level FlightAware Approximate
01:20PM 32.3685 -86.0751 116° Southeast  Level FlightAware Approximate
01:21PM 32.3498 -86.0310 117° Southeast  Level FlightAware Approximate
01:22PM 32.3312 -85.9868 117° Southeast  Level FlightAware Approximate
01:22PM 32.2000 -85.9167 117° Southeast 163 188 6,800  Level Atlanta TRACON
01:23PM 32.3125 -85.9426 117° Southeast  Level FlightAware Approximate
01:23PM 32.1833 -85.8667 111° Southeast 161 185 6,800  Level Atlanta TRACON
01:24PM 32.2939 -85.8985 117° Southeast  Level FlightAware Approximate
01:24PM 32.1667 -85.8333 121° Southeast 162 186 6,800  Level Atlanta TRACON
01:25PM 32.2752 -85.8544 117° Southeast  Level FlightAware Approximate
01:25PM 32.1500 -85.7833 111° Southeast 161 185 6,800  Level Atlanta TRACON
01:26PM 32.2565 -85.8103 117° Southeast  Level FlightAware Approximate
01:26PM 32.1167 -85.7333 128° Southeast 159 183 6,800  Level Atlanta TRACON
01:27PM 32.2377 -85.7662 117° Southeast  Level FlightAware Approximate
01:27PM 32.1000 -85.6833 111° Southeast 160 184 6,800  Level Atlanta TRACON
01:28PM 32.2190 -85.7222 117° Southeast  Level FlightAware Approximate
01:28PM 32.0833 -85.6500 121° Southeast 158 182 6,800  Level Atlanta TRACON
01:29PM 32.0667 -85.6000 111° Southeast 161 185 6,800  Level Atlanta TRACON
01:30PM 32.0333 -85.5500 128° Southeast 159 183 6,800  Level Atlanta TRACON
01:31PM 32.0167 -85.5000 111° Southeast 157 181 6,800  Level Atlanta TRACON
01:32PM 32.0000 -85.4667 121° Southeast 161 185 6,800  Level Atlanta TRACON
01:33PM 31.9833 -85.4167 111° Southeast 161 185 6,800  Level Atlanta TRACON
01:34PM 31.9667 -85.3667 111° Southeast 159 183 6,800  Level Atlanta TRACON
01:35PM 31.9500 -85.3167 111° Southeast 161 185 6,900  Climbing Atlanta TRACON
01:36PM 31.9167 -85.2833 140° Southeast 161 185 6,800  Descending Atlanta TRACON
01:36PM 31.9147 -85.2667 98° East 157 181 6,900 60 Climbing Jacksonville Center
01:37PM 31.8967 -85.2197 114° Southeast 182 209 6,900  Level Jacksonville Center
01:38PM 31.8767 -85.1728 117° Southeast 172 198 6,900  Level Jacksonville Center
01:39PM 31.8586 -85.1283 116° Southeast 167 192 6,900  Level Jacksonville Center
01:40PM 31.8386 -85.0814 117° Southeast 162 186 6,900  Level Jacksonville Center
01:41PM 31.8208 -85.0319 113° Southeast 162 186 6,900  Level Jacksonville Center
01:42PM 31.7942 -84.9872 125° Southeast 162 186 6,900  Level Jacksonville Center
01:43PM 31.7783 -84.9381 111° Southeast 162 186 6,900  Level Jacksonville Center
01:44PM 31.7542 -84.8936 123° Southeast 162 186 6,900  Level Jacksonville Center
01:45PM 31.7361 -84.8444 113° Southeast 162 186 6,900 -60 Level Jacksonville Center
01:46PM 31.7139 -84.7950 118° Southeast 167 192 6,800 -60 Descending Jacksonville Center
01:47PM 31.6956 -84.7508 116° Southeast 167 192 6,800  Level Jacksonville Center
01:48PM 31.6797 -84.7017 111° Southeast 162 186 6,800  Level Jacksonville Center
01:49PM 31.6617 -84.6547 114° Southeast 162 186 6,900  Climbing Jacksonville Center
01:50PM 31.6414 -84.6081 117° Southeast 162 186 6,900  Level Jacksonville Center
01:51PM 31.6253 -84.5614 112° Southeast 157 181 6,900  Level Jacksonville Center
01:52PM 31.6050 -84.5172 118° Southeast 157 181 6,900  Level Jacksonville Center
01:53PM 31.5867 -84.4681 114° Southeast 157 181 6,900  Level Jacksonville Center
01:54PM 31.5664 -84.4214 117° Southeast 157 181 6,900  Level Jacksonville Center
01:55PM 31.5483 -84.3747 114° Southeast 157 181 6,900  Level Jacksonville Center
01:56PM 31.5278 -84.3281 117° Southeast 157 181 6,900  Level Jacksonville Center
01:57PM 31.5075 -84.2817 117° Southeast 157 181 6,900  Level Jacksonville Center
01:58PM 31.4892 -84.2325 114° Southeast 157 181 6,900 -60 Level Jacksonville Center
01:59PM 31.4708 -84.1836 114° Southeast 157 181 6,800 -60 Descending Jacksonville Center
02:00PM 31.4525 -84.1394 116° Southeast 157 181 6,800 -60 Level Jacksonville Center
02:01PM 31.4342 -84.1003 119° Southeast 157 181 6,700  Descending Jacksonville Center
02:02PM 31.4139 -84.0514 116° Southeast 159 183 6,800  Climbing Jacksonville Center
02:03PM 31.3933 -84.0072 119° Southeast 156 180 6,800  Level Jacksonville Center
02:04PM 31.3728 -83.9583 116° Southeast 157 181 6,900 60 Climbing Jacksonville Center
02:05PM 31.3544 -83.9119 115° Southeast 157 181 7,000  Climbing Jacksonville Center
02:06PM 31.3339 -83.8656 117° Southeast 157 181 6,900 -60 Descending Jacksonville Center
02:07PM 31.3133 -83.8192 117° Southeast 161 185 6,900  Level Jacksonville Center
02:08PM 31.2969 -83.7703 111° Southeast 162 186 6,900  Level Jacksonville Center
02:09PM 31.2786 -83.7214 114° Southeast 157 181 6,900 -60 Level Jacksonville Center
02:10PM 31.2581 -83.6750 117° Southeast 162 186 6,800 -60 Descending Jacksonville Center
02:11PM 31.2375 -83.6264 116° Southeast 161 185 6,800  Level Jacksonville Center
02:13PM 31.2147 -83.5728 116° Southeast 162 186 6,800  Level Jacksonville Center
02:14PM 31.1942 -83.5289 119° Southeast 161 185 6,800  Level Jacksonville Center
02:15PM 31.1733 -83.4778 115° Southeast 163 188 6,800  Level Jacksonville Center
02:16PM 31.1547 -83.4317 115° Southeast 162 186 6,800  Level Jacksonville Center
02:17PM 31.1383 -83.3828 111° Southeast 160 184 6,800  Level Jacksonville Center
02:18PM 31.1175 -83.3392 119° Southeast 159 183 6,800  Level Jacksonville Center
02:19PM 31.0969 -83.2906 116° Southeast 158 182 6,800  Level Jacksonville Center
02:19PM 31.0803 -83.2492 115° Southeast 159 183 6,800  Level Jacksonville Center
02:20PM 31.0575 -83.2006 119° Southeast 161 185 6,800  Level Jacksonville Center
02:22PM 31.0389 -83.1494 113° Southeast 162 186 6,800  Level Jacksonville Center
02:23PM 31.0181 -83.1011 117° Southeast 158 182 6,900  Climbing Jacksonville Center
02:24PM 30.9972 -83.0575 119° Southeast 159 183 6,800  Descending Jacksonville Center
02:25PM 30.9764 -83.0136 119° Southeast 157 181 6,900  Climbing Jacksonville Center
02:26PM 30.9556 -82.9653 117° Southeast 158 182 6,900  Level Jacksonville Center
02:27PM 30.9408 -82.9217 111° Southeast 159 183 6,900  Level Jacksonville Center
02:27PM 30.9200 -82.8878 126° Southeast 173 199 6,900 -60 Level Jacksonville Center
02:28PM 30.8969 -82.8442 122° Southeast 173 199 6,800 -60 Descending Jacksonville Center
02:29PM 30.8761 -82.7958 117° Southeast 167 192 6,800  Level Jacksonville Center
02:30PM 30.8572 -82.7497 116° Southeast 162 186 6,900  Climbing Jacksonville Center
02:31PM 30.8406 -82.7014 112° Southeast 162 186 6,900 -60 Level Jacksonville Center
02:32PM 30.8217 -82.6531 108° East 157 181 6,800 -60 Descending Jacksonville Center
02:33PM 30.8259 -82.6494 108° East  Level FlightAware Approximate
02:33PM 30.8008 -82.6072 118° Southeast 157 181 6,800  Level Jacksonville Center
02:34PM 30.7819 -82.5614 116° Southeast 157 181 6,800 60 Level Jacksonville Center
02:35PM 30.7692 -82.5250 112° Southeast 157 181 6,900  Climbing Jacksonville Center
02:35PM 30.7628 -82.5131 122° Southeast 158 182 6,800  Descending Jacksonville Center
02:36PM 30.7439 -82.4647 114° Southeast 162 186 6,900  Climbing Jacksonville Center
02:37PM 30.7228 -82.4214 120° Southeast 157 181 6,800  Descending Jacksonville Center
02:38PM 30.6956 -82.3803 128° Southeast 157 181 6,900 -360 Climbing Jacksonville Center
02:39PM 30.6619 -82.3297 128° Southeast 180 207 6,100 -1,020 Descending Jacksonville Center
02:40PM 30.6408 -82.2842 118° Southeast 192 221 5,000 -780 Descending Jacksonville Center
02:41PM 30.6114 -82.2336 124° Southeast 181 208 4,700 -120 Descending Jacksonville Center
02:42PM 30.5925 -82.1878 116° Southeast 151 174 4,800  Climbing Jacksonville Center
02:43PM 30.5775 -82.1422 111° Southeast 148 170 4,800 -300 Level Jacksonville Center
02:44PM 30.5606 -82.0942 112° Southeast 167 192 4,300 -420 Descending Jacksonville Center
02:45PM 30.5456 -82.0436 109° East 172 198 4,000 -240 Descending Jacksonville Center
02:46PM 30.5222 -81.9978 121° Southeast 152 175 3,900 -60 Descending Jacksonville Center
02:47PM 30.5011 -81.9572 121° Southeast 151 174 3,900  Level Jacksonville Center
02:48PM 30.4736 -81.9189 130° Southeast 153 176 4,000 60 Climbing Jacksonville Center
02:50PM 30.4525 -81.8781 121° Southeast 156 180 4,100  Climbing Jacksonville Center
02:51PM 30.4333 -81.8350 117° Southeast 155 178 4,000 -60 Descending Jacksonville Center
02:52PM 30.4161 -81.7869 113° Southeast 145 167 4,000 -240 Level Jacksonville Center
02:53PM 30.4033 -81.7436 109° East 148 170 3,600 -840 Descending Jacksonville Center
02:54PM 30.3903 -81.6908 106° East 177 204 2,400 -840 Descending Jacksonville Center
02:55PM 30.3753 -81.6453 111° Southeast 158 182 1,900 -480 Descending Jacksonville Center
02:56PM 30.3686 -81.5950 99° East 132 152 1,400 -600 Descending Jacksonville Center
02:57PM 30.3639 -81.5564 98° East 119 137 700 -600 Descending Jacksonville Center
02:58PM 30.3533 -81.5350 120° Southeast 68 78 300 -480 Descending Jacksonville Center
03:00PM 30.3363 -81.5144 115° Southeast  Level Estimated